sensor_id;sensor_type;location;lat;lon;timestamp;P1;durP1;ratioP1;P2;durP2;ratioP2
75435;SDS011;64014;53.432;14.534;2023-02-28T00:00:29;37.85;;;16.33;;
75435;SDS011;64014;53.432;14.534;2023-02-28T00:02:55;33.58;;;15.57;;
75435;SDS011;64014;53.432;14.534;2023-02-28T00:05:22;32.80;;;14.90;;
75435;SDS011;64014;53.432;14.534;2023-02-28T00:07:48;39.10;;;15.68;;
75435;SDS011;64014;53.432;14.534;2023-02-28T00:10:16;34.50;;;15.55;;
75435;SDS011;64014;53.432;14.534;2023-02-28T00:12:46;34.38;;;14.48;;
75435;SDS011;64014;53.432;14.534;2023-02-28T00:15:12;37.33;;;16.25;;
75435;SDS011;64014;53.432;14.534;2023-02-28T00:17:39;30.88;;;13.85;;
75435;SDS011;64014;53.432;14.534;2023-02-28T00:20:05;39.53;;;15.65;;
75435;SDS011;64014;53.432;14.534;2023-02-28T00:22:38;37.75;;;16.08;;
75435;SDS011;64014;53.432;14.534;2023-02-28T00:25:05;38.55;;;16.98;;
75435;SDS011;64014;53.432;14.534;2023-02-28T00:27:32;40.08;;;17.90;;
75435;SDS011;64014;53.432;14.534;2023-02-28T00:29:58;42.47;;;18.75;;
75435;SDS011;64014;53.432;14.534;2023-02-28T00:32:24;38.88;;;16.83;;
75435;SDS011;64014;53.432;14.534;2023-02-28T00:34:50;39.25;;;16.65;;
75435;SDS011;64014;53.432;14.534;2023-02-28T00:37:16;51.25;;;23.33;;
75435;SDS011;64014;53.432;14.534;2023-02-28T00:39:43;42.85;;;18.42;;
75435;SDS011;64014;53.432;14.534;2023-02-28T00:42:09;38.67;;;17.13;;
75435;SDS011;64014;53.432;14.534;2023-02-28T00:44:35;53.10;;;19.52;;
75435;SDS011;64014;53.432;14.534;2023-02-28T00:47:01;50.97;;;22.55;;
75435;SDS011;64014;53.432;14.534;2023-02-28T00:49:27;48.53;;;18.95;;
75435;SDS011;64014;53.432;14.534;2023-02-28T00:51:54;40.70;;;20.00;;
75435;SDS011;64014;53.432;14.534;2023-02-28T00:54:21;45.70;;;20.25;;
75435;SDS011;64014;53.432;14.534;2023-02-28T00:56:47;46.97;;;21.85;;
75435;SDS011;64014;53.432;14.534;2023-02-28T00:59:14;41.42;;;18.85;;
75435;SDS011;64014;53.432;14.534;2023-02-28T01:01:41;52.60;;;22.83;;
75435;SDS011;64014;53.432;14.534;2023-02-28T01:04:07;44.83;;;19.95;;
75435;SDS011;64014;53.432;14.534;2023-02-28T01:06:33;44.70;;;19.90;;
75435;SDS011;64014;53.432;14.534;2023-02-28T01:09:00;52.67;;;23.00;;
75435;SDS011;64014;53.432;14.534;2023-02-28T01:11:27;55.80;;;23.90;;
75435;SDS011;64014;53.432;14.534;2023-02-28T01:13:53;52.58;;;23.15;;
75435;SDS011;64014;53.432;14.534;2023-02-28T01:16:19;49.83;;;20.67;;
75435;SDS011;64014;53.432;14.534;2023-02-28T01:18:45;57.65;;;23.33;;
75435;SDS011;64014;53.432;14.534;2023-02-28T01:21:12;53.38;;;23.42;;
75435;SDS011;64014;53.432;14.534;2023-02-28T01:23:39;51.83;;;22.88;;
75435;SDS011;64014;53.432;14.534;2023-02-28T01:26:06;51.80;;;21.60;;
75435;SDS011;64014;53.432;14.534;2023-02-28T01:28:32;63.38;;;25.27;;
75435;SDS011;64014;53.432;14.534;2023-02-28T01:30:59;52.17;;;22.73;;
75435;SDS011;64014;53.432;14.534;2023-02-28T01:33:25;51.28;;;22.90;;
75435;SDS011;64014;53.432;14.534;2023-02-28T01:36:04;57.67;;;25.45;;
75435;SDS011;64014;53.432;14.534;2023-02-28T01:38:31;47.90;;;22.65;;
75435;SDS011;64014;53.432;14.534;2023-02-28T01:40:57;55.88;;;23.55;;
75435;SDS011;64014;53.432;14.534;2023-02-28T01:43:25;54.85;;;23.33;;
75435;SDS011;64014;53.432;14.534;2023-02-28T01:45:52;54.15;;;23.85;;
75435;SDS011;64014;53.432;14.534;2023-02-28T01:48:19;54.33;;;22.35;;
75435;SDS011;64014;53.432;14.534;2023-02-28T01:50:46;50.38;;;22.45;;
75435;SDS011;64014;53.432;14.534;2023-02-28T01:53:15;55.58;;;22.88;;
75435;SDS011;64014;53.432;14.534;2023-02-28T01:55:42;56.92;;;23.13;;
75435;SDS011;64014;53.432;14.534;2023-02-28T01:58:10;52.08;;;22.58;;
75435;SDS011;64014;53.432;14.534;2023-02-28T02:00:37;49.58;;;22.23;;
75435;SDS011;64014;53.432;14.534;2023-02-28T02:03:12;52.55;;;23.38;;
75435;SDS011;64014;53.432;14.534;2023-02-28T02:05:39;56.83;;;22.52;;
75435;SDS011;64014;53.432;14.534;2023-02-28T02:08:10;55.47;;;22.10;;
75435;SDS011;64014;53.432;14.534;2023-02-28T02:10:48;56.15;;;24.05;;
75435;SDS011;64014;53.432;14.534;2023-02-28T02:18:30;61.95;;;24.50;;
75435;SDS011;64014;53.432;14.534;2023-02-28T02:36:36;54.85;;;25.02;;
75435;SDS011;64014;53.432;14.534;2023-02-28T02:41:49;53.15;;;22.92;;
75435;SDS011;64014;53.432;14.534;2023-02-28T02:44:24;57.25;;;23.67;;
75435;SDS011;64014;53.432;14.534;2023-02-28T02:46:57;55.63;;;24.10;;
75435;SDS011;64014;53.432;14.534;2023-02-28T02:49:26;54.75;;;24.05;;
75435;SDS011;64014;53.432;14.534;2023-02-28T02:51:53;56.45;;;24.15;;
75435;SDS011;64014;53.432;14.534;2023-02-28T02:54:22;50.47;;;24.50;;
75435;SDS011;64014;53.432;14.534;2023-02-28T02:56:53;54.88;;;23.67;;
75435;SDS011;64014;53.432;14.534;2023-02-28T02:59:21;50.47;;;23.50;;
75435;SDS011;64014;53.432;14.534;2023-02-28T03:01:50;68.22;;;26.23;;
75435;SDS011;64014;53.432;14.534;2023-02-28T03:04:19;57.40;;;24.88;;
75435;SDS011;64014;53.432;14.534;2023-02-28T03:06:45;54.40;;;24.80;;
75435;SDS011;64014;53.432;14.534;2023-02-28T03:09:11;50.00;;;24.02;;
75435;SDS011;64014;53.432;14.534;2023-02-28T03:11:38;54.15;;;25.58;;
75435;SDS011;64014;53.432;14.534;2023-02-28T03:24:18;51.50;;;22.90;;
75435;SDS011;64014;53.432;14.534;2023-02-28T03:26:50;49.28;;;21.17;;
75435;SDS011;64014;53.432;14.534;2023-02-28T03:31:45;51.33;;;21.63;;
75435;SDS011;64014;53.432;14.534;2023-02-28T03:34:25;48.63;;;22.63;;
75435;SDS011;64014;53.432;14.534;2023-02-28T03:36:53;46.45;;;21.30;;
75435;SDS011;64014;53.432;14.534;2023-02-28T03:39:22;45.45;;;22.45;;
75435;SDS011;64014;53.432;14.534;2023-02-28T03:44:24;40.00;;;20.05;;
75435;SDS011;64014;53.432;14.534;2023-02-28T03:47:05;48.17;;;19.90;;
75435;SDS011;64014;53.432;14.534;2023-02-28T03:49:40;39.45;;;19.00;;
75435;SDS011;64014;53.432;14.534;2023-02-28T03:52:08;42.10;;;18.50;;
75435;SDS011;64014;53.432;14.534;2023-02-28T03:54:36;44.50;;;19.48;;
75435;SDS011;64014;53.432;14.534;2023-02-28T03:57:27;46.97;;;21.45;;
75435;SDS011;64014;53.432;14.534;2023-02-28T04:00:06;43.25;;;19.42;;
75435;SDS011;64014;53.432;14.534;2023-02-28T04:02:33;46.70;;;18.05;;
75435;SDS011;64014;53.432;14.534;2023-02-28T04:05:00;44.15;;;20.00;;
75435;SDS011;64014;53.432;14.534;2023-02-28T04:07:28;45.30;;;20.38;;
75435;SDS011;64014;53.432;14.534;2023-02-28T04:09:55;54.90;;;22.70;;
75435;SDS011;64014;53.432;14.534;2023-02-28T04:12:21;55.85;;;24.63;;
75435;SDS011;64014;53.432;14.534;2023-02-28T04:14:48;48.47;;;24.45;;
75435;SDS011;64014;53.432;14.534;2023-02-28T04:17:15;39.15;;;18.73;;
75435;SDS011;64014;53.432;14.534;2023-02-28T04:19:41;46.10;;;21.02;;
75435;SDS011;64014;53.432;14.534;2023-02-28T04:22:07;34.63;;;16.20;;
75435;SDS011;64014;53.432;14.534;2023-02-28T04:24:34;34.97;;;16.63;;
75435;SDS011;64014;53.432;14.534;2023-02-28T04:27:00;46.55;;;20.35;;
75435;SDS011;64014;53.432;14.534;2023-02-28T04:29:27;39.63;;;18.33;;
75435;SDS011;64014;53.432;14.534;2023-02-28T04:31:54;42.80;;;18.92;;
75435;SDS011;64014;53.432;14.534;2023-02-28T04:34:23;43.05;;;19.30;;
75435;SDS011;64014;53.432;14.534;2023-02-28T04:36:49;46.22;;;18.67;;
75435;SDS011;64014;53.432;14.534;2023-02-28T04:39:18;49.47;;;20.90;;
75435;SDS011;64014;53.432;14.534;2023-02-28T04:41:45;44.13;;;19.30;;
75435;SDS011;64014;53.432;14.534;2023-02-28T04:44:11;49.30;;;18.98;;
75435;SDS011;64014;53.432;14.534;2023-02-28T04:46:38;48.25;;;20.05;;
75435;SDS011;64014;53.432;14.534;2023-02-28T04:49:04;46.42;;;19.52;;
75435;SDS011;64014;53.432;14.534;2023-02-28T04:51:30;47.15;;;20.10;;
75435;SDS011;64014;53.432;14.534;2023-02-28T04:53:56;47.63;;;19.52;;
75435;SDS011;64014;53.432;14.534;2023-02-28T04:56:23;47.60;;;21.35;;
75435;SDS011;64014;53.432;14.534;2023-02-28T04:58:49;45.72;;;20.15;;
75435;SDS011;64014;53.432;14.534;2023-02-28T05:01:22;44.08;;;19.92;;
75435;SDS011;64014;53.432;14.534;2023-02-28T05:03:49;52.15;;;22.73;;
75435;SDS011;64014;53.432;14.534;2023-02-28T05:06:16;50.33;;;20.33;;
75435;SDS011;64014;53.432;14.534;2023-02-28T05:08:43;62.40;;;29.63;;
75435;SDS011;64014;53.432;14.534;2023-02-28T05:11:14;56.92;;;23.35;;
75435;SDS011;64014;53.432;14.534;2023-02-28T05:13:41;51.67;;;23.63;;
75435;SDS011;64014;53.432;14.534;2023-02-28T05:16:07;51.35;;;21.42;;
75435;SDS011;64014;53.432;14.534;2023-02-28T05:18:33;49.30;;;22.20;;
75435;SDS011;64014;53.432;14.534;2023-02-28T05:20:59;47.33;;;21.50;;
75435;SDS011;64014;53.432;14.534;2023-02-28T05:23:28;44.15;;;22.77;;
75435;SDS011;64014;53.432;14.534;2023-02-28T05:25:55;50.63;;;23.70;;
75435;SDS011;64014;53.432;14.534;2023-02-28T05:28:21;56.75;;;25.92;;
75435;SDS011;64014;53.432;14.534;2023-02-28T05:30:47;55.22;;;26.08;;
75435;SDS011;64014;53.432;14.534;2023-02-28T05:33:13;56.28;;;26.52;;
75435;SDS011;64014;53.432;14.534;2023-02-28T05:35:40;60.65;;;25.83;;
75435;SDS011;64014;53.432;14.534;2023-02-28T05:38:07;54.35;;;24.42;;
75435;SDS011;64014;53.432;14.534;2023-02-28T05:40:33;55.42;;;26.15;;
75435;SDS011;64014;53.432;14.534;2023-02-28T05:43:00;57.25;;;26.90;;
75435;SDS011;64014;53.432;14.534;2023-02-28T05:45:26;59.90;;;26.25;;
75435;SDS011;64014;53.432;14.534;2023-02-28T05:47:55;61.10;;;26.20;;
75435;SDS011;64014;53.432;14.534;2023-02-28T05:50:21;62.53;;;26.70;;
75435;SDS011;64014;53.432;14.534;2023-02-28T05:52:50;60.00;;;25.20;;
75435;SDS011;64014;53.432;14.534;2023-02-28T05:55:17;51.53;;;23.50;;
75435;SDS011;64014;53.432;14.534;2023-02-28T05:57:43;56.22;;;24.77;;
75435;SDS011;64014;53.432;14.534;2023-02-28T06:00:10;49.53;;;25.90;;
75435;SDS011;64014;53.432;14.534;2023-02-28T06:02:37;49.08;;;22.90;;
75435;SDS011;64014;53.432;14.534;2023-02-28T06:05:04;54.03;;;24.73;;
75435;SDS011;64014;53.432;14.534;2023-02-28T06:07:31;46.90;;;22.75;;
75435;SDS011;64014;53.432;14.534;2023-02-28T06:09:57;53.45;;;24.20;;
75435;SDS011;64014;53.432;14.534;2023-02-28T06:12:23;52.78;;;24.17;;
75435;SDS011;64014;53.432;14.534;2023-02-28T06:14:49;57.33;;;28.25;;
75435;SDS011;64014;53.432;14.534;2023-02-28T06:17:15;49.10;;;24.30;;
75435;SDS011;64014;53.432;14.534;2023-02-28T06:19:41;53.83;;;25.52;;
75435;SDS011;64014;53.432;14.534;2023-02-28T06:22:07;55.92;;;25.25;;
75435;SDS011;64014;53.432;14.534;2023-02-28T06:24:34;56.92;;;25.02;;
75435;SDS011;64014;53.432;14.534;2023-02-28T06:27:00;65.07;;;29.40;;
75435;SDS011;64014;53.432;14.534;2023-02-28T06:29:30;54.60;;;24.27;;
75435;SDS011;64014;53.432;14.534;2023-02-28T06:31:57;52.28;;;24.63;;
75435;SDS011;64014;53.432;14.534;2023-02-28T06:34:23;57.20;;;26.60;;
75435;SDS011;64014;53.432;14.534;2023-02-28T06:36:50;49.03;;;24.38;;
75435;SDS011;64014;53.432;14.534;2023-02-28T06:39:17;46.65;;;22.00;;
75435;SDS011;64014;53.432;14.534;2023-02-28T06:41:43;49.58;;;22.02;;
75435;SDS011;64014;53.432;14.534;2023-02-28T06:44:14;48.38;;;22.23;;
75435;SDS011;64014;53.432;14.534;2023-02-28T06:46:41;58.58;;;28.42;;
75435;SDS011;64014;53.432;14.534;2023-02-28T06:49:08;47.92;;;23.30;;
75435;SDS011;64014;53.432;14.534;2023-02-28T06:51:34;52.25;;;25.25;;
75435;SDS011;64014;53.432;14.534;2023-02-28T06:54:01;51.97;;;24.60;;
75435;SDS011;64014;53.432;14.534;2023-02-28T06:56:27;56.92;;;23.98;;
75435;SDS011;64014;53.432;14.534;2023-02-28T06:58:53;52.75;;;24.70;;
75435;SDS011;64014;53.432;14.534;2023-02-28T07:01:19;51.80;;;25.88;;
75435;SDS011;64014;53.432;14.534;2023-02-28T07:03:48;53.10;;;24.63;;
75435;SDS011;64014;53.432;14.534;2023-02-28T07:06:26;52.83;;;26.65;;
75435;SDS011;64014;53.432;14.534;2023-02-28T07:08:53;60.17;;;27.90;;
75435;SDS011;64014;53.432;14.534;2023-02-28T07:11:19;55.13;;;25.15;;
75435;SDS011;64014;53.432;14.534;2023-02-28T07:13:47;47.80;;;24.52;;
75435;SDS011;64014;53.432;14.534;2023-02-28T07:16:13;50.22;;;25.73;;
75435;SDS011;64014;53.432;14.534;2023-02-28T07:18:40;51.92;;;26.25;;
75435;SDS011;64014;53.432;14.534;2023-02-28T07:21:07;52.22;;;25.05;;
75435;SDS011;64014;53.432;14.534;2023-02-28T07:23:34;51.45;;;24.52;;
75435;SDS011;64014;53.432;14.534;2023-02-28T07:26:00;52.30;;;25.60;;
75435;SDS011;64014;53.432;14.534;2023-02-28T07:28:26;52.05;;;26.50;;
75435;SDS011;64014;53.432;14.534;2023-02-28T07:30:52;56.88;;;26.98;;
75435;SDS011;64014;53.432;14.534;2023-02-28T07:33:19;59.40;;;27.88;;
75435;SDS011;64014;53.432;14.534;2023-02-28T07:35:45;59.05;;;28.75;;
75435;SDS011;64014;53.432;14.534;2023-02-28T07:38:11;55.78;;;29.98;;
75435;SDS011;64014;53.432;14.534;2023-02-28T07:40:39;60.60;;;30.73;;
75435;SDS011;64014;53.432;14.534;2023-02-28T07:43:05;65.07;;;31.73;;
75435;SDS011;64014;53.432;14.534;2023-02-28T07:45:31;62.80;;;33.75;;
75435;SDS011;64014;53.432;14.534;2023-02-28T07:47:59;62.45;;;30.20;;
75435;SDS011;64014;53.432;14.534;2023-02-28T07:50:25;65.10;;;29.95;;
75435;SDS011;64014;53.432;14.534;2023-02-28T07:52:56;62.33;;;29.27;;
75435;SDS011;64014;53.432;14.534;2023-02-28T07:55:22;57.22;;;29.77;;
75435;SDS011;64014;53.432;14.534;2023-02-28T07:57:48;57.80;;;29.38;;
75435;SDS011;64014;53.432;14.534;2023-02-28T08:00:14;62.35;;;32.50;;
75435;SDS011;64014;53.432;14.534;2023-02-28T08:02:40;59.10;;;32.42;;
75435;SDS011;64014;53.432;14.534;2023-02-28T08:05:07;56.95;;;28.88;;
75435;SDS011;64014;53.432;14.534;2023-02-28T08:07:33;54.83;;;27.58;;
75435;SDS011;64014;53.432;14.534;2023-02-28T08:10:00;41.10;;;21.13;;
75435;SDS011;64014;53.432;14.534;2023-02-28T08:12:26;35.65;;;17.77;;
75435;SDS011;64014;53.432;14.534;2023-02-28T08:14:52;30.00;;;12.95;;
75435;SDS011;64014;53.432;14.534;2023-02-28T08:17:18;26.42;;;14.27;;
75435;SDS011;64014;53.432;14.534;2023-02-28T08:19:45;28.20;;;14.98;;
75435;SDS011;64014;53.432;14.534;2023-02-28T08:22:11;29.70;;;14.50;;
75435;SDS011;64014;53.432;14.534;2023-02-28T08:24:38;29.27;;;13.65;;
75435;SDS011;64014;53.432;14.534;2023-02-28T08:27:04;24.52;;;14.00;;
75435;SDS011;64014;53.432;14.534;2023-02-28T08:29:30;21.40;;;12.10;;
75435;SDS011;64014;53.432;14.534;2023-02-28T08:31:56;27.40;;;13.63;;
75435;SDS011;64014;53.432;14.534;2023-02-28T08:34:23;31.00;;;15.57;;
75435;SDS011;64014;53.432;14.534;2023-02-28T08:36:50;29.65;;;14.45;;
75435;SDS011;64014;53.432;14.534;2023-02-28T08:39:16;27.50;;;14.23;;
75435;SDS011;64014;53.432;14.534;2023-02-28T08:41:42;24.60;;;12.25;;
75435;SDS011;64014;53.432;14.534;2023-02-28T08:44:09;24.95;;;12.73;;
75435;SDS011;64014;53.432;14.534;2023-02-28T08:46:35;27.33;;;14.63;;
75435;SDS011;64014;53.432;14.534;2023-02-28T08:49:01;44.83;;;20.00;;
75435;SDS011;64014;53.432;14.534;2023-02-28T08:51:28;37.08;;;20.20;;
75435;SDS011;64014;53.432;14.534;2023-02-28T08:53:55;36.33;;;19.75;;
75435;SDS011;64014;53.432;14.534;2023-02-28T08:56:23;38.63;;;20.27;;
75435;SDS011;64014;53.432;14.534;2023-02-28T08:58:50;36.33;;;20.08;;
75435;SDS011;64014;53.432;14.534;2023-02-28T09:01:17;40.55;;;20.02;;
75435;SDS011;64014;53.432;14.534;2023-02-28T09:03:43;43.88;;;20.13;;
75435;SDS011;64014;53.432;14.534;2023-02-28T09:06:11;36.28;;;17.95;;
75435;SDS011;64014;53.432;14.534;2023-02-28T09:08:37;38.15;;;20.70;;
75435;SDS011;64014;53.432;14.534;2023-02-28T09:11:04;36.17;;;18.83;;
75435;SDS011;64014;53.432;14.534;2023-02-28T09:13:30;31.48;;;16.33;;
75435;SDS011;64014;53.432;14.534;2023-02-28T09:16:00;35.17;;;18.20;;
75435;SDS011;64014;53.432;14.534;2023-02-28T09:18:27;30.95;;;15.35;;
75435;SDS011;64014;53.432;14.534;2023-02-28T09:20:54;27.83;;;14.15;;
75435;SDS011;64014;53.432;14.534;2023-02-28T09:23:20;35.05;;;18.00;;
75435;SDS011;64014;53.432;14.534;2023-02-28T09:25:49;31.55;;;16.10;;
75435;SDS011;64014;53.432;14.534;2023-02-28T09:28:16;37.90;;;17.65;;
75435;SDS011;64014;53.432;14.534;2023-02-28T09:30:44;30.50;;;16.42;;
75435;SDS011;64014;53.432;14.534;2023-02-28T09:33:10;26.60;;;13.13;;
75435;SDS011;64014;53.432;14.534;2023-02-28T09:35:37;23.63;;;11.10;;
75435;SDS011;64014;53.432;14.534;2023-02-28T09:38:03;24.60;;;12.13;;
75435;SDS011;64014;53.432;14.534;2023-02-28T09:40:29;22.33;;;11.10;;
75435;SDS011;64014;53.432;14.534;2023-02-28T09:42:56;21.80;;;10.20;;
75435;SDS011;64014;53.432;14.534;2023-02-28T09:47:50;18.83;;;10.02;;
75435;SDS011;64014;53.432;14.534;2023-02-28T09:50:22;17.25;;;9.27;;
75435;SDS011;64014;53.432;14.534;2023-02-28T09:52:49;25.48;;;10.38;;
75435;SDS011;64014;53.432;14.534;2023-02-28T09:55:28;21.80;;;10.85;;
75435;SDS011;64014;53.432;14.534;2023-02-28T09:57:55;18.98;;;8.18;;
75435;SDS011;64014;53.432;14.534;2023-02-28T10:00:28;13.95;;;7.13;;
75435;SDS011;64014;53.432;14.534;2023-02-28T10:03:03;12.48;;;6.15;;
75435;SDS011;64014;53.432;14.534;2023-02-28T10:05:34;13.57;;;6.28;;
75435;SDS011;64014;53.432;14.534;2023-02-28T10:10:44;10.07;;;4.38;;
75435;SDS011;64014;53.432;14.534;2023-02-28T10:13:20;13.57;;;5.88;;
75435;SDS011;64014;53.432;14.534;2023-02-28T10:15:49;14.98;;;7.82;;
75435;SDS011;64014;53.432;14.534;2023-02-28T10:18:19;13.98;;;6.45;;
75435;SDS011;64014;53.432;14.534;2023-02-28T10:20:47;11.95;;;6.53;;
75435;SDS011;64014;53.432;14.534;2023-02-28T10:23:16;28.73;;;21.17;;
75435;SDS011;64014;53.432;14.534;2023-02-28T10:25:45;43.03;;;24.65;;
75435;SDS011;64014;53.432;14.534;2023-02-28T10:28:16;44.63;;;19.70;;
75435;SDS011;64014;53.432;14.534;2023-02-28T10:30:49;18.33;;;8.13;;
75435;SDS011;64014;53.432;14.534;2023-02-28T10:33:21;11.50;;;4.93;;
75435;SDS011;64014;53.432;14.534;2023-02-28T10:35:48;21.63;;;8.93;;
75435;SDS011;64014;53.432;14.534;2023-02-28T10:38:18;8.90;;;3.63;;
75435;SDS011;64014;53.432;14.534;2023-02-28T10:40:44;10.63;;;4.60;;
75435;SDS011;64014;53.432;14.534;2023-02-28T10:45:51;9.65;;;4.35;;
75435;SDS011;64014;53.432;14.534;2023-02-28T10:53:17;11.68;;;5.43;;
75435;SDS011;64014;53.432;14.534;2023-02-28T10:58:24;10.27;;;3.85;;
75435;SDS011;64014;53.432;14.534;2023-02-28T11:00:51;12.02;;;5.60;;
75435;SDS011;64014;53.432;14.534;2023-02-28T11:05:50;9.27;;;3.83;;
75435;SDS011;64014;53.432;14.534;2023-02-28T11:08:16;70.28;;;38.90;;
75435;SDS011;64014;53.432;14.534;2023-02-28T11:10:46;120.60;;;47.67;;
75435;SDS011;64014;53.432;14.534;2023-02-28T11:13:20;8.98;;;3.58;;
75435;SDS011;64014;53.432;14.534;2023-02-28T11:15:58;23.13;;;12.18;;
75435;SDS011;64014;53.432;14.534;2023-02-28T11:18:34;9.15;;;5.22;;
75435;SDS011;64014;53.432;14.534;2023-02-28T11:21:02;7.65;;;4.07;;
75435;SDS011;64014;53.432;14.534;2023-02-28T11:23:29;9.90;;;5.00;;
75435;SDS011;64014;53.432;14.534;2023-02-28T11:25:58;8.85;;;4.70;;
75435;SDS011;64014;53.432;14.534;2023-02-28T11:28:35;9.10;;;2.70;;
75435;SDS011;64014;53.432;14.534;2023-02-28T11:31:03;9.40;;;3.50;;
75435;SDS011;64014;53.432;14.534;2023-02-28T11:33:30;14.20;;;6.03;;
75435;SDS011;64014;53.432;14.534;2023-02-28T11:36:02;7.75;;;3.30;;
75435;SDS011;64014;53.432;14.534;2023-02-28T11:38:29;12.75;;;4.97;;
75435;SDS011;64014;53.432;14.534;2023-02-28T11:41:59;16.25;;;4.82;;
75435;SDS011;64014;53.432;14.534;2023-02-28T11:49:07;8.43;;;3.75;;
75435;SDS011;64014;53.432;14.534;2023-02-28T11:51:50;7.05;;;2.47;;
75435;SDS011;64014;53.432;14.534;2023-02-28T11:56:47;6.47;;;1.80;;
75435;SDS011;64014;53.432;14.534;2023-02-28T12:06:52;8.77;;;2.15;;
75435;SDS011;64014;53.432;14.534;2023-02-28T12:16:58;9.40;;;6.32;;
75435;SDS011;64014;53.432;14.534;2023-02-28T12:19:48;17.77;;;9.35;;
75435;SDS011;64014;53.432;14.534;2023-02-28T12:22:28;8.13;;;6.53;;
75435;SDS011;64014;53.432;14.534;2023-02-28T12:27:22;9.57;;;5.28;;
75435;SDS011;64014;53.432;14.534;2023-02-28T12:29:49;8.60;;;6.45;;
75435;SDS011;64014;53.432;14.534;2023-02-28T12:32:21;11.75;;;6.25;;
75435;SDS011;64014;53.432;14.534;2023-02-28T12:34:56;20.17;;;13.48;;
75435;SDS011;64014;53.432;14.534;2023-02-28T12:37:37;6.68;;;5.18;;
75435;SDS011;64014;53.432;14.534;2023-02-28T12:40:06;12.77;;;9.75;;
75435;SDS011;64014;53.432;14.534;2023-02-28T12:42:38;8.00;;;6.05;;
75435;SDS011;64014;53.432;14.534;2023-02-28T12:47:34;9.38;;;5.05;;
75435;SDS011;64014;53.432;14.534;2023-02-28T12:50:03;10.23;;;4.15;;
75435;SDS011;64014;53.432;14.534;2023-02-28T12:52:40;14.57;;;6.40;;
75435;SDS011;64014;53.432;14.534;2023-02-28T13:00:20;5.85;;;4.47;;
75435;SDS011;64014;53.432;14.534;2023-02-28T13:06:01;9.85;;;5.63;;
75435;SDS011;64014;53.432;14.534;2023-02-28T13:10:58;8.02;;;4.88;;
75435;SDS011;64014;53.432;14.534;2023-02-28T13:13:25;7.80;;;5.47;;
75435;SDS011;64014;53.432;14.534;2023-02-28T13:16:09;6.07;;;3.67;;
75435;SDS011;64014;53.432;14.534;2023-02-28T13:18:37;7.30;;;4.20;;
75435;SDS011;64014;53.432;14.534;2023-02-28T13:21:08;7.60;;;4.50;;
75435;SDS011;64014;53.432;14.534;2023-02-28T13:23:39;8.75;;;5.35;;
75435;SDS011;64014;53.432;14.534;2023-02-28T13:26:05;9.40;;;6.10;;
75435;SDS011;64014;53.432;14.534;2023-02-28T13:31:22;8.98;;;5.85;;
75435;SDS011;64014;53.432;14.534;2023-02-28T13:38:44;5.72;;;3.30;;
75435;SDS011;64014;53.432;14.534;2023-02-28T13:42:13;7.13;;;4.25;;
75435;SDS011;64014;53.432;14.534;2023-02-28T13:44:21;6.07;;;3.22;;
75435;SDS011;64014;53.432;14.534;2023-02-28T13:51:50;9.90;;;5.15;;
75435;SDS011;64014;53.432;14.534;2023-02-28T13:59:36;5.53;;;3.40;;
75435;SDS011;64014;53.432;14.534;2023-02-28T14:07:09;5.90;;;3.05;;
75435;SDS011;64014;53.432;14.534;2023-02-28T14:09:40;7.97;;;3.97;;
75435;SDS011;64014;53.432;14.534;2023-02-28T14:17:17;5.95;;;3.95;;
75435;SDS011;64014;53.432;14.534;2023-02-28T14:19:44;5.85;;;3.25;;
75435;SDS011;64014;53.432;14.534;2023-02-28T14:24:49;7.90;;;3.50;;
75435;SDS011;64014;53.432;14.534;2023-02-28T14:38:00;5.85;;;2.78;;
75435;SDS011;64014;53.432;14.534;2023-02-28T14:40:35;7.72;;;3.42;;
75435;SDS011;64014;53.432;14.534;2023-02-28T14:43:03;7.90;;;3.75;;
75435;SDS011;64014;53.432;14.534;2023-02-28T14:45:30;7.95;;;3.80;;
75435;SDS011;64014;53.432;14.534;2023-02-28T14:47:56;7.63;;;4.00;;
75435;SDS011;64014;53.432;14.534;2023-02-28T14:50:25;5.93;;;3.45;;
75435;SDS011;64014;53.432;14.534;2023-02-28T14:52:53;9.88;;;2.90;;
75435;SDS011;64014;53.432;14.534;2023-02-28T14:55:28;12.55;;;4.07;;
75435;SDS011;64014;53.432;14.534;2023-02-28T14:57:56;7.82;;;3.65;;
75435;SDS011;64014;53.432;14.534;2023-02-28T15:02:52;7.60;;;2.72;;
75435;SDS011;64014;53.432;14.534;2023-02-28T15:07:46;8.15;;;3.50;;
75435;SDS011;64014;53.432;14.534;2023-02-28T15:10:21;13.63;;;5.68;;
75435;SDS011;64014;53.432;14.534;2023-02-28T15:12:52;10.07;;;4.20;;
75435;SDS011;64014;53.432;14.534;2023-02-28T15:15:21;9.13;;;3.60;;
75435;SDS011;64014;53.432;14.534;2023-02-28T15:17:51;7.03;;;3.20;;
75435;SDS011;64014;53.432;14.534;2023-02-28T15:20:20;8.27;;;2.58;;
75435;SDS011;64014;53.432;14.534;2023-02-28T15:22:46;5.22;;;1.77;;
75435;SDS011;64014;53.432;14.534;2023-02-28T15:25:15;5.50;;;2.20;;
75435;SDS011;64014;53.432;14.534;2023-02-28T15:27:45;5.72;;;1.45;;
75435;SDS011;64014;53.432;14.534;2023-02-28T15:30:17;10.35;;;2.08;;
75435;SDS011;64014;53.432;14.534;2023-02-28T15:32:43;4.45;;;1.75;;
75435;SDS011;64014;53.432;14.534;2023-02-28T15:37:58;6.63;;;2.70;;
75435;SDS011;64014;53.432;14.534;2023-02-28T15:40:31;7.47;;;2.47;;
75435;SDS011;64014;53.432;14.534;2023-02-28T15:43:05;12.02;;;4.68;;
75435;SDS011;64014;53.432;14.534;2023-02-28T15:45:33;10.68;;;5.13;;
75435;SDS011;64014;53.432;14.534;2023-02-28T15:48:03;26.88;;;11.70;;
75435;SDS011;64014;53.432;14.534;2023-02-28T15:50:29;19.08;;;9.60;;
75435;SDS011;64014;53.432;14.534;2023-02-28T15:52:55;11.90;;;4.47;;
75435;SDS011;64014;53.432;14.534;2023-02-28T15:55:23;13.95;;;5.13;;
75435;SDS011;64014;53.432;14.534;2023-02-28T15:57:53;19.90;;;8.25;;
75435;SDS011;64014;53.432;14.534;2023-02-28T16:00:24;10.85;;;5.93;;
75435;SDS011;64014;53.432;14.534;2023-02-28T16:02:50;12.02;;;4.78;;
75435;SDS011;64014;53.432;14.534;2023-02-28T16:05:22;16.38;;;8.48;;
75435;SDS011;64014;53.432;14.534;2023-02-28T16:07:53;14.77;;;8.02;;
75435;SDS011;64014;53.432;14.534;2023-02-28T16:10:20;22.08;;;9.07;;
75435;SDS011;64014;53.432;14.534;2023-02-28T16:12:48;23.75;;;11.30;;
75435;SDS011;64014;53.432;14.534;2023-02-28T16:15:18;24.88;;;13.20;;
75435;SDS011;64014;53.432;14.534;2023-02-28T16:17:45;21.77;;;10.93;;
75435;SDS011;64014;53.432;14.534;2023-02-28T16:20:12;19.00;;;9.90;;
75435;SDS011;64014;53.432;14.534;2023-02-28T16:22:38;14.85;;;7.68;;
75435;SDS011;64014;53.432;14.534;2023-02-28T16:25:07;12.43;;;6.88;;
75435;SDS011;64014;53.432;14.534;2023-02-28T16:27:35;14.68;;;5.90;;
75435;SDS011;64014;53.432;14.534;2023-02-28T16:30:02;13.27;;;6.07;;
75435;SDS011;64014;53.432;14.534;2023-02-28T16:32:28;16.70;;;6.22;;
75435;SDS011;64014;53.432;14.534;2023-02-28T16:34:55;16.75;;;7.78;;
75435;SDS011;64014;53.432;14.534;2023-02-28T16:37:21;16.27;;;7.07;;
75435;SDS011;64014;53.432;14.534;2023-02-28T16:39:47;12.30;;;5.95;;
75435;SDS011;64014;53.432;14.534;2023-02-28T16:42:16;18.88;;;6.53;;
75435;SDS011;64014;53.432;14.534;2023-02-28T16:44:44;103.05;;;44.35;;
75435;SDS011;64014;53.432;14.534;2023-02-28T16:47:11;19.48;;;7.35;;